Mojito — FAC3438 — position and weather

sailwx.info

Track history (hours):
 
Tides and Currents Weather Stations Pressure Air Temp Water Temp Dewpoint Dewpoint Depression Visibility Wind Speed Wind Dir Waves Ship Positions

Mojito

Last reported at 2018-Jul-06 17:22 UTC. Time now 2018-Jul-20 23:49 UTC.
Position N 46°09' W 001°10'.
Warning: this ship's position is 14 days out of date.

Length 8 m.

Type: Sailing vessel. MMSI: 227275660.

Date/timePositionNaut miles runAvg speedWind from/ knotsBaromVisibWave heightAir tempDewpointWater temp
2018-Jul-06 17:22N 46°09' W 001°10'0 0.0
2018-Jul-06 16:58N 46°09' W 001°10'0 0.0
2018-Jul-06 16:28N 46°09' W 001°10'1 1.6
2018-Jul-06 16:00N 46°09' W 001°11'1 2.9
2018-Jul-06 15:30N 46°08' W 001°13'1 2.1
2018-Jul-06 15:00N 46°08' W 001°14'2 4.4
2018-Jul-06 14:30N 46°06' W 001°12'2 3.6
2018-Jul-06 13:56N 46°04' W 001°11'3 1.1
2018-Jul-06 11:29N 46°02' W 001°11'1 2.8
2018-Jul-06 10:59N 46°03' W 001°11'2 3.3
2018-Jul-06 10:30N 46°05' W 001°11'2 3.6
2018-Jul-06 10:00N 46°06' W 001°11'2 3.7
2018-Jul-06 09:30N 46°08' W 001°12'1 1.5
2018-Jul-06 09:00N 46°09' W 001°11'1 1.1
2018-Jul-06 08:28N 46°09' W 001°10'0 0.0
2018-Jul-06 07:58N 46°09' W 001°10'0 0.0
2018-Jul-06 07:28N 46°09' W 001°10'0 0.0
2018-Jul-06 06:58N 46°09' W 001°10'0 0.0
2018-Jul-06 06:28N 46°09' W 001°10'0 0.0
2018-Jul-06 05:58N 46°09' W 001°10'0 0.0
2018-Jul-06 05:28N 46°09' W 001°10'0 0.0
2018-Jul-06 04:58N 46°09' W 001°10'0 0.0
2018-Jul-06 04:28N 46°09' W 001°10'0 0.0
2018-Jul-06 03:58N 46°09' W 001°10'0 0.0
2018-Jul-06 03:28N 46°09' W 001°10'0 0.0
2018-Jul-06 02:58N 46°09' W 001°10'0 0.0
2018-Jul-06 02:30N 46°09' W 001°10'0 0.0
2018-Jul-06 01:59N 46°09' W 001°10'0 0.0
2018-Jul-06 01:29N 46°09' W 001°10'0 0.0
2018-Jul-06 00:59N 46°09' W 001°10'0 0.0
2018-Jul-06 00:30N 46°09' W 001°10'0 0.0
2018-Jul-05 23:59N 46°09' W 001°10'0 0.0
2018-Jul-05 23:29N 46°09' W 001°10'0 0.0
2018-Jul-05 22:59N 46°09' W 001°10'0 0.0
2018-Jul-05 22:29N 46°09' W 001°10'0 0.0
2018-Jul-05 21:59N 46°09' W 001°10'0 0.0
2018-Jul-05 21:29N 46°09' W 001°10'0 0.0
2018-Jul-05 20:59N 46°09' W 001°10'0 0.0
2018-Jul-05 20:29N 46°09' W 001°10'0 0.0
2018-Jul-05 19:59N 46°09' W 001°10'0 0.0
2018-Jul-05 19:29N 46°09' W 001°10'0 0.0
2018-Jul-05 18:59N 46°09' W 001°10'0 0.0
2018-Jul-05 18:29N 46°09' W 001°10'0 0.0
2018-Jul-05 18:00N 46°09' W 001°10'0 0.0
2018-Jul-05 17:29N 46°09' W 001°10'0 0.0
2018-Jul-05 16:59N 46°09' W 001°10'0 0.0
2018-Jul-05 16:29N 46°09' W 001°10'1 1.0
2018-Jul-05 16:00N 46°09' W 001°11'2 4.2
2018-Jul-05 15:30N 46°08' W 001°14'3 5.4
2018-Jul-05 15:00N 46°11' W 001°15'3 6.2
2018-Jul-05 14:30N 46°14' W 001°17'17 4.8
2018-Jul-05 11:01N 46°23' W 001°38'2 4.7
2018-Jul-05 10:37N 46°24' W 001°40'1 4.8
2018-Jul-05 10:30N 46°24' W 001°40'2 2.0
2018-Jul-05 09:41N 46°26' W 001°41'0 0.0
2018-Jul-04 13:25N 46°26' W 001°41'16 3.9
2018-Jul-04 09:13N 46°15' W 001°24'1 3.3
2018-Jul-04 08:55N 46°14' W 001°23'1 3.6
2018-Jul-04 08:30N 46°13' W 001°22'0 0.0
2018-Jul-03 16:51N 46°12' W 001°22'1 1.0
2018-Jul-03 16:20N 46°13' W 001°22'0 0.0
2018-Jul-03 15:56N 46°13' W 001°22'0 0.0
2018-Jul-03 15:26N 46°13' W 001°22'1 1.4
2018-Jul-03 14:50N 46°14' W 001°22'2 3.6
2018-Jul-03 14:10N 46°16' W 001°23'0 3.0
2018-Jul-03 14:00N 46°16' W 001°22'2 3.7
2018-Jul-03 13:31N 46°15' W 001°20'2 4.0
2018-Jul-03 13:01N 46°13' W 001°19'2 3.8
2018-Jul-03 12:30N 46°12' W 001°17'2 3.8
2018-Jul-03 12:00N 46°10' W 001°15'2 3.8
2018-Jul-03 11:30N 46°09' W 001°14'2 3.3
2018-Jul-03 11:00N 46°08' W 001°12'2 3.0
2018-Jul-03 10:30N 46°09' W 001°10'0 0.0
2018-Jul-03 10:00N 46°09' W 001°10'0 0.0
2018-Jul-03 09:30N 46°09' W 001°10'0 0.0
2018-Jul-03 09:00N 46°09' W 001°10'0 0.0
2018-Jul-03 08:30N 46°09' W 001°10'0 0.0
2018-Jul-03 08:00N 46°09' W 001°10'0 0.0
2018-Jul-03 07:30N 46°09' W 001°10'  
Track history (hours):
 
Tides and Currents Weather Stations Pressure Air Temp Water Temp Dewpoint Dewpoint Depression Visibility Wind Speed Wind Dir Waves Ship Positions

Mojito

Last reported at 2018-Jul-06 17:22 UTC. Time now 2018-Jul-20 23:49 UTC.
Position N 46°09' W 001°10'.
Warning: this ship's position is 14 days out of date.

Length 8 m.

Type: Sailing vessel. MMSI: 227275660.

Date/timePositionNaut miles runAvg speedWind from/ knotsBaromVisibWave heightAir tempDewpointWater temp
2018-Jul-06 17:22N 46°09' W 001°10'0 0.0
2018-Jul-06 16:58N 46°09' W 001°10'0 0.0
2018-Jul-06 16:28N 46°09' W 001°10'1 1.6
2018-Jul-06 16:00N 46°09' W 001°11'1 2.9
2018-Jul-06 15:30N 46°08' W 001°13'1 2.1
2018-Jul-06 15:00N 46°08' W 001°14'2 4.4
2018-Jul-06 14:30N 46°06' W 001°12'2 3.6
2018-Jul-06 13:56N 46°04' W 001°11'3 1.1
2018-Jul-06 11:29N 46°02' W 001°11'1 2.8
2018-Jul-06 10:59N 46°03' W 001°11'2 3.3
2018-Jul-06 10:30N 46°05' W 001°11'2 3.6
2018-Jul-06 10:00N 46°06' W 001°11'2 3.7
2018-Jul-06 09:30N 46°08' W 001°12'1 1.5
2018-Jul-06 09:00N 46°09' W 001°11'1 1.1
2018-Jul-06 08:28N 46°09' W 001°10'0 0.0
2018-Jul-06 07:58N 46°09' W 001°10'0 0.0
2018-Jul-06 07:28N 46°09' W 001°10'0 0.0
2018-Jul-06 06:58N 46°09' W 001°10'0 0.0
2018-Jul-06 06:28N 46°09' W 001°10'0 0.0
2018-Jul-06 05:58N 46°09' W 001°10'0 0.0
2018-Jul-06 05:28N 46°09' W 001°10'0 0.0
2018-Jul-06 04:58N 46°09' W 001°10'0 0.0
2018-Jul-06 04:28N 46°09' W 001°10'0 0.0
2018-Jul-06 03:58N 46°09' W 001°10'0 0.0
2018-Jul-06 03:28N 46°09' W 001°10'0 0.0
2018-Jul-06 02:58N 46°09' W 001°10'0 0.0
2018-Jul-06 02:30N 46°09' W 001°10'0 0.0
2018-Jul-06 01:59N 46°09' W 001°10'0 0.0
2018-Jul-06 01:29N 46°09' W 001°10'0 0.0
2018-Jul-06 00:59N 46°09' W 001°10'0 0.0
2018-Jul-06 00:30N 46°09' W 001°10'0 0.0
2018-Jul-05 23:59N 46°09' W 001°10'0 0.0
2018-Jul-05 23:29N 46°09' W 001°10'0 0.0
2018-Jul-05 22:59N 46°09' W 001°10'0 0.0
2018-Jul-05 22:29N 46°09' W 001°10'0 0.0
2018-Jul-05 21:59N 46°09' W 001°10'0 0.0
2018-Jul-05 21:29N 46°09' W 001°10'0 0.0
2018-Jul-05 20:59N 46°09' W 001°10'0 0.0
2018-Jul-05 20:29N 46°09' W 001°10'0 0.0
2018-Jul-05 19:59N 46°09' W 001°10'0 0.0
2018-Jul-05 19:29N 46°09' W 001°10'0 0.0
2018-Jul-05 18:59N 46°09' W 001°10'0 0.0
2018-Jul-05 18:29N 46°09' W 001°10'0 0.0
2018-Jul-05 18:00N 46°09' W 001°10'0 0.0
2018-Jul-05 17:29N 46°09' W 001°10'0 0.0
2018-Jul-05 16:59N 46°09' W 001°10'0 0.0
2018-Jul-05 16:29N 46°09' W 001°10'1 1.0
2018-Jul-05 16:00N 46°09' W 001°11'2 4.2
2018-Jul-05 15:30N 46°08' W 001°14'3 5.4
2018-Jul-05 15:00N 46°11' W 001°15'3 6.2
2018-Jul-05 14:30N 46°14' W 001°17'17 4.8
2018-Jul-05 11:01N 46°23' W 001°38'2 4.7
2018-Jul-05 10:37N 46°24' W 001°40'1 4.8
2018-Jul-05 10:30N 46°24' W 001°40'2 2.0
2018-Jul-05 09:41N 46°26' W 001°41'0 0.0
2018-Jul-04 13:25N 46°26' W 001°41'16 3.9
2018-Jul-04 09:13N 46°15' W 001°24'1 3.3
2018-Jul-04 08:55N 46°14' W 001°23'1 3.6
2018-Jul-04 08:30N 46°13' W 001°22'0 0.0
2018-Jul-03 16:51N 46°12' W 001°22'1 1.0
2018-Jul-03 16:20N 46°13' W 001°22'0 0.0
2018-Jul-03 15:56N 46°13' W 001°22'0 0.0
2018-Jul-03 15:26N 46°13' W 001°22'1 1.4
2018-Jul-03 14:50N 46°14' W 001°22'2 3.6
2018-Jul-03 14:10N 46°16' W 001°23'0 3.0
2018-Jul-03 14:00N 46°16' W 001°22'2 3.7
2018-Jul-03 13:31N 46°15' W 001°20'2 4.0
2018-Jul-03 13:01N 46°13' W 001°19'2 3.8
2018-Jul-03 12:30N 46°12' W 001°17'2 3.8
2018-Jul-03 12:00N 46°10' W 001°15'2 3.8
2018-Jul-03 11:30N 46°09' W 001°14'2 3.3
2018-Jul-03 11:00N 46°08' W 001°12'2 3.0
2018-Jul-03 10:30N 46°09' W 001°10'0 0.0
2018-Jul-03 10:00N 46°09' W 001°10'0 0.0
2018-Jul-03 09:30N 46°09' W 001°10'0 0.0
2018-Jul-03 09:00N 46°09' W 001°10'0 0.0
2018-Jul-03 08:30N 46°09' W 001°10'0 0.0
2018-Jul-03 08:00N 46°09' W 001°10'0 0.0
2018-Jul-03 07:30N 46°09' W 001°10'  

Dump ship's entire track history